Latest Coastal Weather Observations for Cape Ferguson

IDQ60701

Issued at 5:31 pm EST Saturday 22 September 2018 (issued every 10 minutes, with the page automatically refreshed every 10 minutes)

About coastal observations | Map of coastal stations | Coastal observations for QLD | Marine services | Other Formats
Station Details ID: 032182 Name: CAPE FERGUSON NTC AWS Lat: -19.28 Lon: 147.06 Height: 0.0 m
Data from the previous 72 hours. | See also: Recent months for locations in Queensland
Date/Time
EST
Wind Sea
Height
m
Swell Vis
km
Cloud Weather Temp
°C
Press
hPa
Rain since
9am
mm
Dir  Spd
kts
Gust
kts
Height
m
Period
s
Dir
22/05:30pm E 20 24 - - - - - - - 23.3 1019.9 -
22/05:00pm E 21 25 - - - - - - - 23.2 1019.7 -
22/04:30pm E 21 25 - - - - - - - 23.2 1019.5 -
22/04:00pm E 19 23 - - - - - - - 23.2 1019.2 -
22/03:30pm E 20 23 - - - - - - - 23.2 1019.3 -
22/03:00pm E 18 22 - - - - - - - 23.3 1019.5 -
22/02:30pm E 18 21 - - - - - - - 23.5 1019.5 -
22/02:00pm E 19 22 - - - - - - - 23.7 1019.9 -
22/01:30pm E 19 23 - - - - - - - 23.3 1020.3 -
22/01:00pm E 19 23 - - - - - - - 23.4 1020.6 -
22/12:30pm E 19 22 - - - - - - - 23.3 1021.0 -
22/12:00pm E 19 22 - - - - - - - 23.1 1021.7 -
22/11:30am E 18 21 - - - - - - - 23.2 1022.1 -
22/11:00am E 17 20 - - - - - - - 23.3 1022.3 -
22/10:30am ESE 18 22 - - - - - - - 23.4 1022.6 -
22/10:00am ESE 13 17 - - - - - - - 23.1 1022.8 -
22/09:30am SE 13 16 - - - - - - - 22.7 1022.7 -
22/09:00am SE 13 17 - - - - - - - 22.2 1022.6 -
22/08:30am SSE 13 16 - - - - - - - 21.9 1022.6 -
22/08:00am SSE 14 17 - - - - - - - 21.5 1022.3 -
22/07:30am SSE 14 19 - - - - - - - 21.5 1022.0 -
22/07:00am SSE 14 17 - - - - - - - 21.2 1021.5 -
22/06:30am SSE 12 15 - - - - - - - 21.0 1021.3 -
22/06:00am SSE 13 15 - - - - - - - 21.2 1021.0 -
22/05:30am SSE 12 15 - - - - - - - 21.2 1020.5 -
22/05:00am SSE 12 15 - - - - - - - 21.1 1020.3 -
22/04:30am SSE 12 15 - - - - - - - 21.3 1020.2 -
22/04:00am SE 11 14 - - - - - - - 21.8 1019.9 -
22/03:30am SE 11 13 - - - - - - - 21.5 1020.1 -
22/03:00am SSE 11 13 - - - - - - - 21.6 1020.1 -
22/02:30am SSE 13 15 - - - - - - - 21.5 1020.3 -
22/02:00am SSE 10 12 - - - - - - - 22.0 1020.4 -
22/01:30am SSE 9 11 - - - - - - - 21.9 1020.7 -
22/01:00am SSE 9 10 - - - - - - - 22.1 1021.0 -
22/12:30am SE 11 14 - - - - - - - 22.3 1021.4 -
22/12:00am ESE 17 21 - - - - - - - 22.9 1021.9 -
 
Date/Time
EST
Wind Sea
Height
m
Swell Vis
km
Cloud Weather Temp
°C
Press
hPa
Rain since
9am
mm
Dir  Spd
kts
Gust
kts
Height
m
Period
s
Dir
21/11:30pm ESE 15 20 - - - - - - - 23.0 1022.0 -
21/11:00pm ESE 19 23 - - - - - - - 23.3 1022.1 -
21/10:30pm ESE 17 21 - - - - - - - 23.4 1021.9 -
21/10:00pm E 19 23 - - - - - - - 23.5 1021.9 -
21/09:30pm E 18 22 - - - - - - - 23.9 1021.6 -
21/09:00pm ESE 17 22 - - - - - - - 24.0 1021.3 -
21/08:30pm E 17 21 - - - - - - - 23.7 1021.3 -
21/08:00pm E 15 18 - - - - - - - 23.5 1020.8 -
21/07:30pm E 17 21 - - - - - - - 23.6 1020.3 -
21/07:00pm E 16 19 - - - - - - - 23.4 1019.7 -
21/06:30pm E 16 19 - - - - - - - 23.6 1019.0 -
21/06:00pm E 15 18 - - - - - - - 23.3 1018.5 -
21/05:30pm E 16 19 - - - - - - - 23.4 1018.1 -
21/05:00pm E 17 20 - - - - - - - 23.4 1017.9 -
21/04:30pm E 16 19 - - - - - - - 23.4 1017.6 -
21/04:00pm E 17 21 - - - - - - - 23.4 1017.5 -
21/03:30pm ENE 18 23 - - - - - - - 23.4 1017.3 -
21/03:00pm E 17 20 - - - - - - - 23.7 1017.1 -
21/02:30pm E 17 21 - - - - - - - 23.6 1017.5 -
21/02:00pm E 15 19 - - - - - - - 23.7 1017.5 -
21/01:30pm E 18 21 - - - - - - - 23.7 1018.0 -
21/01:00pm E 18 21 - - - - - - - 23.8 1018.2 -
21/12:30pm E 18 22 - - - - - - - 23.9 1018.6 -
21/12:00pm E 18 21 - - - - - - - 23.7 1018.9 -
21/11:30am E 16 19 - - - - - - - 23.7 1019.1 -
21/11:00am E 15 18 - - - - - - - 23.7 1019.5 -
21/10:30am E 15 19 - - - - - - - 23.5 1019.8 -
21/10:00am ESE 10 12 - - - - - - - 23.4 1019.6 -
21/09:30am ESE 12 14 - - - - - - - 23.1 1019.7 -
21/09:00am SE 11 13 - - - - - - - 22.9 1019.4 -
21/08:30am SE 11 14 - - - - - - - 22.2 1019.2 -
21/08:00am SE 12 14 - - - - - - - 21.7 1018.9 -
21/07:30am SSE 11 13 - - - - - - - 21.5 1018.5 -
21/07:00am SSE 12 14 - - - - - - - 21.3 1018.2 -
21/06:30am S 7 9 - - - - - - - 21.4 1017.3 -
21/06:00am WNW 2 4 - - - - - - - 20.9 1016.6 -
21/05:30am SW 2 5 - - - - - - - 21.0 1016.0 -
21/05:00am SW 4 6 - - - - - - - 21.1 1015.5 -
21/04:30am WNW 5 6 - - - - - - - 20.5 1015.1 -
21/04:00am WNW 4 5 - - - - - - - 20.7 1014.6 -
21/03:30am WNW 5 6 - - - - - - - 20.3 1014.5 -
21/03:00am WNW 4 5 - - - - - - - 20.6 1014.4 -
21/02:30am WNW 4 5 - - - - - - - 20.8 1014.5 -
21/02:00am WNW 5 7 - - - - - - - 20.8 1014.8 -
21/01:30am NW 4 6 - - - - - - - 20.8 1014.8 -
21/01:00am SSW 2 5 - - - - - - - 21.7 1015.1 -
21/12:30am CALM 0 2 - - - - - - - 21.4 1015.2 -
21/12:00am WNW 2 2 - - - - - - - 21.0 1015.6 -
 
Date/Time
EST
Wind Sea
Height
m
Swell Vis
km
Cloud Weather Temp
°C
Press
hPa
Rain since
9am
mm
Dir  Spd
kts
Gust
kts
Height
m
Period
s
Dir
20/11:30pm WNW 2 3 - - - - - - - 21.0 1015.8 -
20/11:00pm CALM 0 2 - - - - - - - 22.5 1015.8 -
20/10:30pm NW 2 2 - - - - - - - 21.9 1015.9 -
20/10:00pm NW 1 1 - - - - - - - 22.7 1016.0 -
20/09:30pm NW 2 2 - - - - - - - 23.1 1016.0 -
20/09:00pm NW 3 4 - - - - - - - 23.1 1016.0 -
20/08:30pm NW 4 6 - - - - - - - 23.0 1015.8 -
20/08:00pm NW 3 6 - - - - - - - 23.2 1015.6 -
20/07:30pm N 3 7 - - - - - - - 23.5 1015.0 -
20/07:00pm WNW 4 8 - - - - - - - 23.4 1014.5 -
20/06:30pm WSW 2 7 - - - - - - - 23.7 1013.9 -
20/06:00pm ENE 3 10 - - - - - - - 23.8 1013.6 -
20/05:30pm ENE 6 14 - - - - - - - 24.0 1013.2 -
20/05:00pm NE 6 14 - - - - - - - 24.2 1013.1 -
20/04:30pm NE 6 13 - - - - - - - 24.3 1013.0 -
20/04:00pm NE 6 12 - - - - - - - 24.4 1012.8 -
20/03:30pm ENE 8 14 - - - - - - - 24.3 1012.8 -
20/03:00pm NE 7 14 - - - - - - - 24.5 1012.7 -
20/02:30pm NE 8 13 - - - - - - - 24.2 1013.1 -
20/02:00pm NE 9 14 - - - - - - - 24.2 1013.4 -
20/01:30pm NNE 9 13 - - - - - - - 24.3 1013.6 -
20/01:00pm NNE 6 10 - - - - - - - 24.3 1014.3 -
20/12:30pm ENE 6 9 - - - - - - - 24.1 1014.8 -
20/12:00pm ENE 5 7 - - - - - - - 23.5 1015.5 -
20/11:30am E 5 7 - - - - - - - 23.3 1015.9 -
20/11:00am ESE 5 6 - - - - - - - 23.2 1016.3 -
20/10:30am ESE 4 6 - - - - - - - 23.3 1016.4 -
20/10:00am SE 3 5 - - - - - - - 23.0 1016.3 -
20/09:30am SE 3 4 - - - - - - - 22.7 1016.3 -
20/09:00am SE 3 5 - - - - - - - 22.3 1016.2 -
20/08:30am S 1 3 - - - - - - - 22.1 1016.1 -
20/08:00am SW 1 2 - - - - - - - 21.8 1016.0 -
20/07:30am SW 2 4 - - - - - - - 21.6 1015.7 -
20/07:00am WNW 3 4 - - - - - - - 21.3 1015.5 -
20/06:30am W 3 4 - - - - - - - 20.5 1015.0 -
20/06:00am WNW 3 5 - - - - - - - 20.8 1014.7 -
20/05:30am W 3 4 - - - - - - - 20.6 1014.3 -
20/05:00am WNW 3 4 - - - - - - - 20.4 1014.0 -
20/04:30am WNW 3 4 - - - - - - - 20.2 1013.7 -
20/04:00am NW 2 3 - - - - - - - 19.9 1013.6 -
20/03:30am WNW 4 5 - - - - - - - 20.0 1013.6 -
20/03:00am ENE 5 8 - - - - - - - 22.7 1013.7 -
20/02:30am ENE 6 8 - - - - - - - 22.8 1014.0 -
20/02:00am ENE 5 7 - - - - - - - 22.7 1014.4 -
20/01:30am ENE 6 8 - - - - - - - 22.8 1014.8 -
20/01:00am E 5 7 - - - - - - - 23.0 1015.2 -
20/12:30am ENE 6 8 - - - - - - - 23.0 1015.5 -
20/12:00am E 2 5 - - - - - - - 22.3 1015.7 -
 
Date/Time
EST
Wind Sea
Height
m
Swell Vis
km
Cloud Weather Temp
°C
Press
hPa
Rain since
9am
mm
Dir  Spd
kts
Gust
kts
Height
m
Period
s
Dir
19/11:30pm NNE 1 5 - - - - - - - 22.2 1016.0 -
19/11:00pm ENE 3 6 - - - - - - - 23.1 1016.2 -
19/10:30pm WNW 1 3 - - - - - - - 21.1 1016.2 -
19/10:00pm NNE 2 4 - - - - - - - 22.2 1016.2 -
19/09:30pm ENE 3 6 - - - - - - - 23.3 1015.9 -
19/09:00pm ENE 4 6 - - - - - - - 23.4 1015.8 -
19/08:30pm NNE 3 4 - - - - - - - 23.0 1015.4 -
19/08:00pm NE 2 5 - - - - - - - 23.4 1015.2 -
19/07:30pm NE 4 8 - - - - - - - 23.5 1015.0 -
19/07:00pm NE 4 6 - - - - - - - 23.5 1014.6 -
19/06:30pm NE 3 5 - - - - - - - 23.4 1014.4 -
19/06:00pm NE 3 5 - - - - - - - 23.5 1014.1 -

Other Formats:

Comma delimited format used in spreadsheet applications
http://www.bom.gov.au/fwo/IDQ60701/IDQ60701.94297.axf

JavaScript Object Notation format (JSON) in row-major order
http://www.bom.gov.au/fwo/IDQ60701/IDQ60701.94297.json